Time;durP1;ratioP1;P1;durP2;ratioP2;P2;SDS_P1;SDS_P2;PMS_P1;PMS_P2;Temp;Humidity;BMP_temperature;BMP_pressure;BME280_temperature;BME280_humidity;BME280_pressure;Samples;Min_cycle;Max_cycle;Signal;HPM_P1;HPM_P2
2023/03/25 00:01:00;;;;;;;3.60;3.43;;;;;;;7.82;100.00;96125.22;5083780;28;20180;-77
2023/03/25 00:03:28;;;;;;;4.10;3.80;;;;;;;7.72;100.00;96131.00;5074124;28;20217;-77
2023/03/25 00:05:56;;;;;;;6.30;5.40;;;;;;;7.51;100.00;96129.72;5078683;28;20217;-77
2023/03/25 00:08:23;;;;;;;3.37;3.10;;;;;;;7.47;100.00;96119.94;5072324;28;20209;-76
2023/03/25 00:10:57;;;;;;;3.00;2.80;;;;;;;7.35;100.00;96112.13;5073068;28;20185;-77
2023/03/25 00:13:22;;;;;;;6.10;5.57;;;;;;;7.30;100.00;96088.50;5072067;28;20650;-76
2023/03/25 00:15:48;;;;;;;4.90;4.60;;;;;;;7.30;100.00;96085.13;5088806;28;20185;-78
2023/03/25 00:18:17;;;;;;;3.87;3.50;;;;;;;7.26;100.00;96081.34;5088195;28;20185;-76
2023/03/25 00:20:44;;;;;;;3.37;3.07;;;;;;;7.21;100.00;96091.66;5082380;28;20185;-76
2023/03/25 00:23:11;;;;;;;3.23;3.03;;;;;;;7.22;100.00;96086.22;5095915;28;20215;-76
2023/03/25 00:25:37;;;;;;;3.10;2.70;;;;;;;7.29;100.00;96089.53;5082259;28;20225;-77
2023/03/25 00:28:02;;;;;;;3.37;3.17;;;;;;;7.22;100.00;96077.63;5075211;28;20207;-79
2023/03/25 00:30:28;;;;;;;2.90;2.80;;;;;;;7.28;100.00;96089.75;5091926;28;20181;-80
2023/03/25 00:32:53;;;;;;;3.20;2.80;;;;;;;7.29;100.00;96101.78;5075725;28;20189;-77
2023/03/25 00:35:19;;;;;;;3.30;3.07;;;;;;;7.26;100.00;96097.78;5086163;28;20221;-77
2023/03/25 00:37:46;;;;;;;2.93;2.73;;;;;;;7.21;100.00;96095.06;5095625;28;20187;-76
2023/03/25 00:40:12;;;;;;;3.33;2.80;;;;;;;7.17;100.00;96103.53;5093450;28;20181;-76
2023/03/25 00:42:43;;;;;;;3.37;3.13;;;;;;;7.25;100.00;96100.59;5080381;28;20561;-76
2023/03/25 00:45:11;;;;;;;3.93;3.73;;;;;;;7.20;100.00;96106.50;5095338;28;20253;-78
2023/03/25 00:47:37;;;;;;;3.57;3.27;;;;;;;7.19;100.00;96109.34;5095489;28;20193;-76
2023/03/25 00:50:04;;;;;;;3.13;2.77;;;;;;;7.19;100.00;96104.91;5079495;28;20284;-77
2023/03/25 00:52:30;;;;;;;3.27;2.90;;;;;;;7.15;100.00;96098.53;5060034;28;20216;-76
2023/03/25 00:54:55;;;;;;;3.20;3.10;;;;;;;7.10;100.00;96096.59;5080136;28;20193;-77
2023/03/25 00:57:21;;;;;;;3.33;3.03;;;;;;;7.03;100.00;96084.69;5075504;28;20196;-77
2023/03/25 00:59:46;;;;;;;3.23;3.07;;;;;;;7.02;100.00;96091.69;5075366;28;20177;-77
2023/03/25 01:02:11;;;;;;;3.20;2.90;;;;;;;7.03;100.00;96085.47;5075480;28;20213;-76
2023/03/25 01:04:38;;;;;;;2.70;2.50;;;;;;;7.00;100.00;96083.31;5075774;28;20621;-77
2023/03/25 01:07:04;;;;;;;4.10;3.00;;;;;;;6.89;100.00;96076.25;5074880;28;20189;-78
2023/03/25 01:09:30;;;;;;;3.10;2.83;;;;;;;6.85;100.00;96069.91;5075110;28;20246;-77
2023/03/25 01:11:55;;;;;;;4.30;3.07;;;;;;;6.88;100.00;96077.28;5093727;28;20180;-77
2023/03/25 01:14:23;;;;;;;3.00;2.83;;;;;;;6.90;100.00;96074.47;5088223;28;20185;-77
2023/03/25 01:16:48;;;;;;;3.50;3.27;;;;;;;6.87;100.00;96080.88;5074680;28;20235;-77
2023/03/25 01:19:14;;;;;;;4.10;3.70;;;;;;;6.78;100.00;96081.41;5088291;28;20251;-77
2023/03/25 01:21:40;;;;;;;3.60;3.30;;;;;;;6.78;100.00;96087.44;5094475;28;20193;-77
2023/03/25 01:24:07;;;;;;;4.67;3.37;;;;;;;6.77;100.00;96085.81;5090367;28;20188;-77
2023/03/25 01:26:33;;;;;;;5.27;3.37;;;;;;;6.72;100.00;96084.91;5073574;28;20302;-77
2023/03/25 01:28:58;;;;;;;3.50;3.20;;;;;;;6.75;100.00;96087.03;5084949;28;20227;-78
2023/03/25 01:31:28;;;;;;;4.00;3.50;;;;;;;6.72;100.00;96083.09;5094897;28;20195;-77
2023/03/25 01:33:55;;;;;;;3.50;3.20;;;;;;;6.75;100.00;96074.81;5091606;28;20173;-77
2023/03/25 01:36:23;;;;;;;3.00;2.90;;;;;;;6.72;100.00;96059.66;5074452;28;20196;-77
2023/03/25 01:38:49;;;;;;;7.30;3.27;;;;;;;6.71;100.00;96063.28;5074617;28;20181;-77
2023/03/25 01:41:15;;;;;;;3.63;3.10;;;;;;;6.71;100.00;96078.88;5074153;28;20238;-77
2023/03/25 01:43:40;;;;;;;4.10;3.47;;;;;;;6.73;100.00;96079.47;5057728;28;20193;-78
2023/03/25 01:46:13;;;;;;;3.80;3.10;;;;;;;6.77;100.00;96059.78;5094426;28;20184;-77
2023/03/25 01:48:42;;;;;;;4.87;3.30;;;;;;;6.80;100.00;96054.13;5094317;28;20621;-77
2023/03/25 01:51:16;;;;;;;4.17;3.43;;;;;;;6.80;100.00;96058.56;5061951;28;20645;-77
2023/03/25 01:53:42;;;;;;;4.23;3.17;;;;;;;6.69;100.00;96058.28;5075054;28;20250;-77
2023/03/25 01:56:12;;;;;;;5.23;3.30;;;;;;;6.76;100.00;96060.78;5074029;28;20269;-77
2023/03/25 01:58:38;;;;;;;3.40;3.10;;;;;;;6.68;100.00;96054.09;5074486;28;20575;-76
2023/03/25 02:01:05;;;;;;;4.17;3.90;;;;;;;6.72;100.00;96056.25;5073918;28;20288;-77
2023/03/25 02:03:35;;;;;;;3.33;3.17;;;;;;;6.74;100.00;96051.63;5089339;28;20224;-77
2023/03/25 02:06:06;;;;;;;4.40;4.10;;;;;;;6.75;100.00;96045.38;5093754;28;20189;-79
2023/03/25 02:08:36;;;;;;;4.37;3.90;;;;;;;6.79;100.00;96049.16;5091259;28;20177;-77
2023/03/25 02:11:02;;;;;;;4.70;4.40;;;;;;;6.77;100.00;96040.75;5091593;28;20177;-77
2023/03/25 02:13:28;;;;;;;4.73;4.43;;;;;;;6.76;100.00;96023.53;5094331;28;20220;-77
2023/03/25 02:16:25;;;;;;;7.00;4.50;;;;;;;6.76;100.00;96020.94;5082878;28;20204;-77
2023/03/25 02:19:21;;;;;;;4.50;4.07;;;;;;;6.69;100.00;96028.81;5073267;28;20192;-77
2023/03/25 02:22:13;;;;;;;4.43;4.13;;;;;;;6.61;100.00;96032.56;5083561;28;20673;-77
2023/03/25 02:24:42;;;;;;;4.50;4.10;;;;;;;6.66;100.00;96037.88;5075433;28;20188;-77
2023/03/25 02:27:32;;;;;;;3.83;3.63;;;;;;;6.75;100.00;96038.38;5073043;28;20785;-76
2023/03/25 02:30:16;;;;;;;3.53;3.40;;;;;;;6.82;100.00;96046.09;5073204;28;20185;-77
2023/03/25 02:33:00;;;;;;;3.30;3.20;;;;;;;6.82;100.00;96039.09;5091209;28;20321;-77
2023/03/25 02:35:46;;;;;;;4.20;3.40;;;;;;;6.86;100.00;96037.63;5083689;28;20177;-78
2023/03/25 02:38:42;;;;;;;3.70;3.40;;;;;;;6.84;100.00;96042.28;5072844;28;20176;-78
2023/03/25 02:41:19;;;;;;;3.73;3.27;;;;;;;6.89;100.00;96058.03;5065232;28;20197;-77
2023/03/25 02:43:57;;;;;;;4.00;3.80;;;;;;;6.89;100.00;96062.44;5073581;28;20177;-77
2023/03/25 02:46:25;;;;;;;3.80;3.50;;;;;;;6.89;100.00;96080.66;5075919;28;20299;-77
2023/03/25 02:49:12;;;;;;;3.90;3.40;;;;;;;6.80;100.00;96082.78;5086734;28;20186;-77
2023/03/25 02:51:45;;;;;;;3.63;3.43;;;;;;;6.70;100.00;96074.69;5072070;28;20541;-78
2023/03/25 02:54:14;;;;;;;4.20;3.97;;;;;;;6.75;100.00;96087.03;5090089;28;20176;-77
2023/03/25 02:56:43;;;;;;;3.90;3.63;;;;;;;6.67;100.00;96083.75;5092795;28;20661;-77
2023/03/25 02:59:13;;;;;;;5.03;4.63;;;;;;;6.72;100.00;96082.28;5081500;28;20216;-77
2023/03/25 03:01:39;;;;;;;3.50;3.40;;;;;;;6.70;100.00;96074.69;5081715;28;20262;-77
2023/03/25 03:04:05;;;;;;;3.83;3.27;;;;;;;6.67;100.00;96057.72;5089258;28;20177;-77
2023/03/25 03:06:36;;;;;;;4.23;3.13;;;;;;;6.68;100.00;96056.69;5092809;28;20191;-77
2023/03/25 03:09:30;;;;;;;3.50;3.27;;;;;;;6.77;100.00;96062.38;5079440;28;20174;-77
2023/03/25 03:12:05;;;;;;;3.20;3.00;;;;;;;6.77;100.00;96066.81;5072740;28;20549;-77
2023/03/25 03:14:59;;;;;;;3.47;3.20;;;;;;;6.76;100.00;96060.78;5073063;28;20204;-77
2023/03/25 03:17:54;;;;;;;3.10;2.90;;;;;;;6.73;100.00;96068.25;5076402;28;20193;-77
2023/03/25 03:20:59;;;;;;;4.47;3.47;;;;;;;6.64;100.00;96059.94;5069349;28;20591;-77
2023/03/25 03:23:35;;;;;;;3.70;3.47;;;;;;;6.60;100.00;96061.41;5089178;28;20622;-77
2023/03/25 03:26:06;;;;;;;3.73;3.37;;;;;;;6.56;100.00;96062.88;5079851;28;20225;-77
2023/03/25 03:28:37;;;;;;;4.17;3.93;;;;;;;6.62;100.00;96080.22;5079564;28;20184;-77
2023/03/25 03:31:05;;;;;;;3.53;3.43;;;;;;;6.58;100.00;96081.66;5092754;28;20176;-77
2023/03/25 03:33:44;;;;;;;5.67;3.53;;;;;;;6.58;100.00;96082.44;5092451;28;20181;-77
2023/03/25 03:36:14;;;;;;;2.90;2.80;;;;;;;6.61;100.00;96076.00;5060608;28;20534;-77
2023/03/25 03:38:45;;;;;;;3.43;3.17;;;;;;;6.58;100.00;96074.63;5072634;28;20208;-77
2023/03/25 03:41:15;;;;;;;3.53;3.33;;;;;;;6.37;100.00;96074.28;5072478;28;20533;-77
2023/03/25 03:44:05;;;;;;;2.93;2.83;;;;;;;6.22;100.00;96065.03;5082206;28;20165;-77
2023/03/25 03:46:48;;;;;;;3.20;3.00;;;;;;;6.22;100.00;96069.44;5086396;28;20647;-77
2023/03/25 03:49:19;;;;;;;3.40;3.20;;;;;;;6.25;100.00;96082.81;5092541;28;20173;-78
2023/03/25 03:51:55;;;;;;;2.90;2.80;;;;;;;6.18;100.00;96092.50;5096502;28;20259;-77
2023/03/25 03:54:26;;;;;;;3.47;3.27;;;;;;;6.19;100.00;96090.69;5096734;28;20617;-77
2023/03/25 03:57:01;;;;;;;3.40;3.30;;;;;;;6.08;100.00;96089.59;5076995;28;20641;-77
2023/03/25 03:59:36;;;;;;;3.60;3.50;;;;;;;6.11;100.00;96090.97;5076547;28;20168;-78
2023/03/25 04:02:07;;;;;;;4.50;4.30;;;;;;;6.04;100.00;96096.25;5077538;28;20196;-77
2023/03/25 04:04:33;;;;;;;4.77;4.37;;;;;;;6.01;100.00;96101.09;5076556;28;20182;-78
2023/03/25 04:07:13;;;;;;;4.03;3.83;;;;;;;5.96;100.00;96101.75;5059039;28;20193;-77
2023/03/25 04:10:01;;;;;;;3.40;3.30;;;;;;;6.01;100.00;96096.69;5076318;28;20223;-77
2023/03/25 04:12:29;;;;;;;2.90;2.80;;;;;;;5.96;100.00;96106.13;5090726;28;20183;-77
2023/03/25 04:14:55;;;;;;;3.63;3.40;;;;;;;5.91;100.00;96104.16;5095626;28;20175;-78
2023/03/25 04:17:23;;;;;;;3.73;3.63;;;;;;;5.98;100.00;96098.91;5084264;28;20614;-77
2023/03/25 04:19:52;;;;;;;6.00;3.10;;;;;;;6.00;100.00;96105.50;5096004;28;20649;-77
2023/03/25 04:22:19;;;;;;;2.90;2.80;;;;;;;6.06;100.00;96101.25;5093023;28;20188;-77
2023/03/25 04:24:48;;;;;;;2.80;2.70;;;;;;;6.01;100.00;96104.50;5075386;28;20182;-77
2023/03/25 04:27:18;;;;;;;3.20;3.10;;;;;;;6.00;100.00;96112.50;5089469;28;20228;-77
2023/03/25 04:29:44;;;;;;;2.90;2.70;;;;;;;6.05;100.00;96110.03;5077463;28;20249;-77
2023/03/25 04:32:11;;;;;;;2.77;2.67;;;;;;;5.91;100.00;96106.00;5091986;28;20268;-77
2023/03/25 04:34:37;;;;;;;3.20;3.10;;;;;;;5.84;100.00;96101.59;5096021;28;20188;-77
2023/03/25 04:37:03;;;;;;;3.20;3.10;;;;;;;5.92;100.00;96107.56;5082584;28;20189;-77
2023/03/25 04:39:31;;;;;;;3.37;3.17;;;;;;;5.88;100.00;96107.19;5075140;28;20212;-78
2023/03/25 04:42:00;;;;;;;3.70;3.50;;;;;;;5.88;100.00;96107.19;5090457;28;20209;-77
2023/03/25 04:44:27;;;;;;;4.03;3.80;;;;;;;5.83;100.00;96112.22;5095282;28;20188;-77
2023/03/25 04:46:54;;;;;;;3.83;3.73;;;;;;;5.76;100.00;96106.25;5084217;28;20243;-77
2023/03/25 04:49:21;;;;;;;3.17;3.07;;;;;;;5.72;100.00;96105.09;5075598;28;20177;-77
2023/03/25 04:51:51;;;;;;;3.93;3.63;;;;;;;5.67;100.00;96107.56;5075213;28;20548;-77
2023/03/25 04:54:17;;;;;;;3.37;3.27;;;;;;;5.62;100.00;96116.00;5074956;28;20650;-77
2023/03/25 04:56:42;;;;;;;3.73;3.43;;;;;;;5.60;100.00;96112.00;5083399;28;20212;-77
2023/03/25 04:59:09;;;;;;;3.53;3.23;;;;;;;5.57;100.00;96113.22;5092626;28;20212;-76
2023/03/25 05:01:41;;;;;;;3.70;3.50;;;;;;;5.61;100.00;96119.59;5092955;28;20173;-77
2023/03/25 05:04:11;;;;;;;3.77;3.57;;;;;;;5.65;100.00;96117.34;5081843;28;20188;-77
2023/03/25 05:06:38;;;;;;;3.83;3.63;;;;;;;5.63;100.00;96116.78;5075174;28;20243;-77
2023/03/25 05:09:04;;;;;;;6.17;4.20;;;;;;;5.59;100.00;96113.00;5075260;28;20276;-77
2023/03/25 05:11:32;;;;;;;5.00;4.67;;;;;;;5.60;100.00;96114.59;5064982;28;20219;-78
2023/03/25 05:13:58;;;;;;;4.17;3.97;;;;;;;5.55;100.00;96123.03;5065515;28;20634;-76
2023/03/25 05:16:23;;;;;;;4.63;4.23;;;;;;;5.59;100.00;96121.59;5076227;28;20173;-76
2023/03/25 05:18:49;;;;;;;4.30;4.03;;;;;;;5.59;100.00;96133.78;5090672;28;20199;-77
2023/03/25 05:21:15;;;;;;;3.60;3.43;;;;;;;5.70;100.00;96136.50;5083912;28;20214;-76
2023/03/25 05:23:40;;;;;;;4.13;3.57;;;;;;;5.73;100.00;96133.50;5075106;28;20220;-76
2023/03/25 05:26:07;;;;;;;3.37;3.17;;;;;;;5.75;100.00;96141.88;5091655;28;20689;-77
2023/03/25 05:28:33;;;;;;;6.53;3.60;;;;;;;5.91;100.00;96139.78;5093526;28;20188;-76
2023/03/25 05:30:58;;;;;;;5.33;4.23;;;;;;;5.99;100.00;96142.91;5095466;28;20181;-76
2023/03/25 05:33:24;;;;;;;5.53;3.10;;;;;;;6.02;100.00;96149.50;5095063;28;20223;-76
2023/03/25 05:35:49;;;;;;;3.27;3.00;;;;;;;6.12;100.00;96145.41;5080034;28;20189;-77
2023/03/25 05:38:17;;;;;;;3.33;3.13;;;;;;;6.16;100.00;96151.75;5074445;28;20185;-77
2023/03/25 05:40:45;;;;;;;3.50;3.30;;;;;;;6.25;100.00;96149.66;5074248;28;20185;-77
2023/03/25 05:43:10;;;;;;;3.70;3.40;;;;;;;6.22;100.00;96142.31;5074508;28;20197;-77
2023/03/25 05:45:36;;;;;;;4.17;3.60;;;;;;;6.32;100.00;96139.19;5086783;28;20189;-77
2023/03/25 05:48:02;;;;;;;5.33;3.67;;;;;;;6.30;100.00;96136.81;5092181;28;20184;-75
2023/03/25 05:50:27;;;;;;;4.07;3.50;;;;;;;6.34;100.00;96145.00;5093543;28;20180;-75
2023/03/25 05:52:54;;;;;;;3.53;3.30;;;;;;;6.40;100.00;96147.53;5075796;28;20667;-75
2023/03/25 05:55:21;;;;;;;4.10;3.70;;;;;;;6.43;100.00;96148.91;5083450;28;20216;-78
2023/03/25 05:57:46;;;;;;;3.50;3.10;;;;;;;6.50;100.00;96136.63;5087248;28;20189;-75
2023/03/25 06:00:15;;;;;;;4.50;3.37;;;;;;;6.51;100.00;96154.63;5094065;28;20184;-73
2023/03/25 06:02:44;;;;;;;2.80;2.70;;;;;;;6.47;100.00;96157.84;5073578;28;20229;-74
2023/03/25 06:05:12;;;;;;;3.80;3.50;;;;;;;6.51;100.00;96162.44;5073783;28;20188;-75
2023/03/25 06:07:41;;;;;;;5.33;3.70;;;;;;;6.51;100.00;96159.03;5073474;28;20201;-75
2023/03/25 06:10:11;;;;;;;4.17;3.97;;;;;;;6.60;100.00;96165.53;5089281;28;20211;-76
2023/03/25 06:12:40;;;;;;;4.83;3.97;;;;;;;6.71;100.00;96169.22;5043623;28;20177;-76
2023/03/25 06:15:08;;;;;;;4.57;4.23;;;;;;;6.63;100.00;96162.53;5093225;28;20184;-76
2023/03/25 06:17:37;;;;;;;4.37;4.07;;;;;;;6.65;100.00;96169.09;5092176;28;20263;-77
2023/03/25 06:20:11;;;;;;;3.50;3.40;;;;;;;6.80;100.00;96170.56;5060001;28;20208;-76
2023/03/25 06:22:43;;;;;;;3.27;3.00;;;;;;;6.88;100.00;96180.66;5073548;28;20272;-75
2023/03/25 06:25:11;;;;;;;2.80;2.60;;;;;;;6.86;100.00;96183.47;5082018;28;20172;-75
2023/03/25 06:27:39;;;;;;;4.73;4.23;;;;;;;6.92;100.00;96171.38;5080850;28;20225;-76
2023/03/25 06:30:10;;;;;;;6.30;3.77;;;;;;;6.94;100.00;96171.97;5067495;28;20185;-76
2023/03/25 06:32:37;;;;;;;4.73;4.23;;;;;;;6.96;100.00;96168.16;5077259;28;20216;-76
2023/03/25 06:35:04;;;;;;;3.90;2.93;;;;;;;7.19;100.00;96179.72;5073367;28;20259;-76
2023/03/25 06:37:29;;;;;;;5.00;3.20;;;;;;;7.27;100.00;96174.16;5080256;28;20288;-76
2023/03/25 06:39:55;;;;;;;4.60;3.73;;;;;;;7.16;100.00;96167.09;5087191;28;20692;-76
2023/03/25 06:42:22;;;;;;;3.83;3.63;;;;;;;7.23;100.00;96173.03;5089789;28;20213;-76
2023/03/25 06:44:48;;;;;;;4.13;3.77;;;;;;;7.38;100.00;96176.81;5072838;28;20696;-76
2023/03/25 06:47:14;;;;;;;3.80;3.50;;;;;;;7.35;100.00;96169.47;5072732;28;20185;-75
2023/03/25 06:49:39;;;;;;;4.10;3.80;;;;;;;7.41;100.00;96173.00;5085306;28;20188;-76
2023/03/25 06:52:05;;;;;;;3.97;3.50;;;;;;;7.43;100.00;96173.56;5092451;28;20181;-77
2023/03/25 06:54:30;;;;;;;3.50;3.20;;;;;;;7.68;100.00;96178.63;5073301;28;20192;-75
2023/03/25 06:56:55;;;;;;;3.80;3.43;;;;;;;7.89;100.00;96172.88;5072800;28;20517;-76
2023/03/25 06:59:20;;;;;;;3.93;3.63;;;;;;;8.05;100.00;96179.25;5082300;28;20576;-75
2023/03/25 07:01:46;;;;;;;4.10;3.80;;;;;;;8.16;100.00;96171.44;5092551;28;20200;-76
2023/03/25 07:04:11;;;;;;;4.00;3.60;;;;;;;7.98;100.00;96189.78;5067552;28;20220;-75
2023/03/25 07:06:36;;;;;;;3.77;3.47;;;;;;;7.85;100.00;96187.41;5074457;28;20652;-75
2023/03/25 07:09:02;;;;;;;5.90;4.20;;;;;;;8.01;100.00;96181.53;5085380;28;20177;-75
2023/03/25 07:11:29;;;;;;;4.40;4.00;;;;;;;7.89;100.00;96180.72;5072776;28;20544;-75
2023/03/25 07:13:55;;;;;;;4.83;3.90;;;;;;;7.90;100.00;96193.53;5082282;28;20260;-75
2023/03/25 07:16:21;;;;;;;4.70;4.33;;;;;;;7.82;100.00;96203.50;5085541;28;20221;-76
2023/03/25 07:18:47;;;;;;;3.80;3.50;;;;;;;7.65;100.00;96198.13;5082234;28;20267;-75
2023/03/25 07:21:13;;;;;;;4.63;4.10;;;;;;;7.73;100.00;96197.00;5092935;28;20645;-76
2023/03/25 07:23:38;;;;;;;4.00;3.70;;;;;;;7.76;100.00;96202.56;5085889;28;20201;-77
2023/03/25 07:26:04;;;;;;;3.63;3.33;;;;;;;7.76;100.00;96189.53;5072153;28;20220;-77
2023/03/25 07:28:29;;;;;;;4.07;3.67;;;;;;;7.80;100.00;96193.28;5078852;28;20216;-76
2023/03/25 07:30:54;;;;;;;3.40;3.07;;;;;;;8.01;100.00;96193.78;5092553;28;20195;-76
2023/03/25 07:33:20;;;;;;;3.97;3.70;;;;;;;8.07;100.00;96187.66;5090349;28;20173;-76
2023/03/25 07:35:45;;;;;;;4.60;3.50;;;;;;;8.18;100.00;96190.28;5072368;28;20189;-76
2023/03/25 07:38:11;;;;;;;5.57;5.27;;;;;;;8.14;100.00;96188.34;5072206;28;20191;-76
2023/03/25 07:40:36;;;;;;;5.23;4.83;;;;;;;8.27;100.00;96188.13;5072664;28;20630;-75
2023/03/25 07:43:02;;;;;;;5.90;4.73;;;;;;;8.37;100.00;96190.19;5055602;28;20308;-76
2023/03/25 07:45:28;;;;;;;4.57;4.33;;;;;;;8.34;100.00;96186.25;5063402;28;20188;-76
2023/03/25 07:47:53;;;;;;;3.80;3.60;;;;;;;8.41;100.00;96188.75;5091863;28;20803;-76
2023/03/25 07:50:21;;;;;;;4.07;3.70;;;;;;;8.54;100.00;96186.69;5092594;28;20537;-77
2023/03/25 07:52:47;;;;;;;3.77;3.57;;;;;;;8.60;100.00;96174.53;5087030;28;20185;-77
2023/03/25 07:55:13;;;;;;;2.93;2.73;;;;;;;8.85;100.00;96180.31;5079389;28;20185;-76
2023/03/25 07:57:40;;;;;;;3.50;3.30;;;;;;;9.01;100.00;96170.94;5092633;28;20197;-77
2023/03/25 08:00:06;;;;;;;2.40;2.30;;;;;;;9.19;100.00;96183.84;5092354;28;20193;-77
2023/03/25 08:02:32;;;;;;;2.50;2.40;;;;;;;9.13;100.00;96177.72;5088372;28;20254;-78
2023/03/25 08:04:57;;;;;;;3.07;2.87;;;;;;;9.32;100.00;96186.19;5076768;28;20184;-77
2023/03/25 08:07:22;;;;;;;3.57;3.37;;;;;;;9.39;98.70;96171.16;5091654;28;20192;-77
2023/03/25 08:09:48;;;;;;;3.40;3.17;;;;;;;9.33;98.71;96171.28;5091792;28;20218;-77
2023/03/25 08:12:13;;;;;;;4.03;3.70;;;;;;;9.19;100.00;96176.00;5082675;28;20193;-78
2023/03/25 08:14:38;;;;;;;5.00;4.70;;;;;;;9.12;99.89;96180.56;5073414;28;20589;-77
2023/03/25 08:17:05;;;;;;;6.37;6.07;;;;;;;9.09;100.00;96179.19;5073934;28;20579;-77
2023/03/25 08:19:30;;;;;;;6.40;6.10;;;;;;;9.31;99.99;96174.13;5072666;28;20177;-77
2023/03/25 08:21:56;;;;;;;7.63;7.13;;;;;;;9.47;97.24;96170.75;5086210;28;20650;-76
2023/03/25 08:24:23;;;;;;;8.63;8.00;;;;;;;9.75;96.08;96177.78;5074064;28;20263;-77
2023/03/25 08:26:48;;;;;;;4.60;3.97;;;;;;;9.76;94.79;96175.97;5072020;28;20225;-77
2023/03/25 08:29:16;;;;;;;3.70;3.50;;;;;;;9.67;95.50;96186.03;5071447;28;20183;-76
2023/03/25 08:31:41;;;;;;;3.27;3.17;;;;;;;9.75;95.78;96180.41;5065668;28;20578;-77
2023/03/25 08:34:07;;;;;;;3.10;3.00;;;;;;;9.56;95.17;96184.28;5075890;28;20186;-76
2023/03/25 08:36:32;;;;;;;3.80;3.50;;;;;;;9.52;96.14;96189.19;5055914;28;20189;-77
2023/03/25 08:38:57;;;;;;;3.57;3.27;;;;;;;9.50;98.42;96183.38;5095789;28;20263;-76
2023/03/25 08:41:23;;;;;;;2.87;2.77;;;;;;;9.25;100.00;96177.66;5095445;28;20236;-77
2023/03/25 08:43:49;;;;;;;3.03;2.83;;;;;;;9.10;100.00;96193.06;5081975;28;20692;-76
2023/03/25 08:46:15;;;;;;;4.00;3.80;;;;;;;8.86;100.00;96189.69;5075430;28;20169;-75
2023/03/25 08:48:40;;;;;;;10.57;9.97;;;;;;;8.74;100.00;96187.13;5075541;28;20185;-77
2023/03/25 08:51:06;;;;;;;4.87;4.53;;;;;;;8.13;100.00;96192.00;5075535;28;20509;-77
2023/03/25 08:53:31;;;;;;;4.60;4.30;;;;;;;8.18;100.00;96189.50;5085481;28;20189;-77
2023/03/25 08:55:58;;;;;;;2.83;2.73;;;;;;;8.33;100.00;96195.09;5082238;28;20217;-77
2023/03/25 08:58:25;;;;;;;3.20;3.00;;;;;;;8.35;100.00;96190.44;5078802;28;20181;-77
2023/03/25 09:00:55;;;;;;;2.73;2.53;;;;;;;8.54;100.00;96185.88;5095614;28;20619;-77
2023/03/25 09:03:21;;;;;;;2.80;2.60;;;;;;;8.50;100.00;96187.38;5095468;28;20197;-75
2023/03/25 09:05:47;;;;;;;3.93;3.73;;;;;;;8.37;100.00;96180.56;5095233;28;20629;-75
2023/03/25 09:08:13;;;;;;;3.43;3.33;;;;;;;8.23;100.00;96194.84;5093689;28;20202;-79
2023/03/25 09:10:39;;;;;;;4.33;4.13;;;;;;;8.14;100.00;96194.34;5095362;28;20185;-77
2023/03/25 09:13:04;;;;;;;3.47;3.27;;;;;;;8.08;100.00;96184.81;5094824;28;20236;-76
2023/03/25 09:15:30;;;;;;;2.97;2.80;;;;;;;7.98;100.00;96183.78;5089876;28;20174;-76
2023/03/25 09:17:55;;;;;;;4.80;4.60;;;;;;;7.86;100.00;96175.94;5084504;28;20193;-75
2023/03/25 09:20:21;;;;;;;4.93;4.40;;;;;;;7.90;100.00;96170.06;5075082;28;20245;-75
2023/03/25 09:22:46;;;;;;;5.77;5.37;;;;;;;8.00;100.00;96168.69;5091471;28;20211;-75
2023/03/25 09:25:12;;;;;;;5.20;4.90;;;;;;;8.04;100.00;96162.81;5057444;28;20371;-75
2023/03/25 09:27:38;;;;;;;5.83;5.47;;;;;;;8.15;100.00;96163.81;5080883;28;20220;-75
2023/03/25 09:30:05;;;;;;;5.53;5.13;;;;;;;8.41;100.00;96165.25;5094598;28;20656;-76
2023/03/25 09:32:30;;;;;;;4.73;4.53;;;;;;;8.47;100.00;96161.72;5095322;28;20184;-76
2023/03/25 09:34:55;;;;;;;4.87;4.67;;;;;;;8.48;100.00;96165.91;5059708;28;20186;-76
2023/03/25 09:37:22;;;;;;;4.40;4.10;;;;;;;8.50;100.00;96158.66;5079519;28;20184;-75
2023/03/25 09:39:47;;;;;;;4.30;3.97;;;;;;;8.72;100.00;96160.44;5086378;28;20261;-76
2023/03/25 09:42:49;;;;;;;4.73;4.43;;;;;;;8.97;100.00;96154.13;5084295;28;20189;-76
2023/03/25 09:45:35;;;;;;;4.80;4.30;;;;;;;9.12;100.00;96154.44;5074873;28;20260;-77
2023/03/25 09:48:09;;;;;;;3.50;3.30;;;;;;;9.16;100.00;96150.31;5082388;28;20217;-76
2023/03/25 09:50:35;;;;;;;3.37;3.07;;;;;;;9.11;100.00;96150.22;5094536;28;20204;-76
2023/03/25 09:53:11;;;;;;;3.73;3.53;;;;;;;9.25;100.00;96150.75;5073580;28;20626;-77
2023/03/25 09:55:42;;;;;;;3.37;3.10;;;;;;;9.31;100.00;96144.56;5074319;28;20267;-78
2023/03/25 09:58:40;;;;;;;4.57;4.37;;;;;;;9.50;100.00;96152.00;5076044;28;20196;-76
2023/03/25 10:01:27;;;;;;;5.40;5.10;;;;;;;9.81;100.00;96137.59;5074235;28;20181;-77
2023/03/25 10:04:11;;;;;;;4.47;4.13;;;;;;;9.99;100.00;96141.81;5074548;28;20220;-76
2023/03/25 10:06:57;;;;;;;4.03;3.73;;;;;;;10.19;100.00;96141.38;5074162;28;20693;-76
2023/03/25 10:09:37;;;;;;;6.00;5.60;;;;;;;10.36;100.00;96142.16;5073236;28;20177;-77
2023/03/25 10:12:23;;;;;;;12.83;12.03;;;;;;;10.57;100.00;96151.06;5084688;28;20176;-76
2023/03/25 10:14:48;;;;;;;3.70;3.60;;;;;;;10.47;100.00;96150.94;5094297;28;20661;-76
2023/03/25 10:17:33;;;;;;;3.57;3.37;;;;;;;10.60;100.00;96142.72;5079637;28;20271;-76
2023/03/25 10:20:11;;;;;;;4.20;3.90;;;;;;;10.36;100.00;96142.16;5093510;28;20185;-76
2023/03/25 10:23:10;;;;;;;3.13;3.03;;;;;;;9.96;100.00;96145.72;5091702;28;20334;-76
2023/03/25 10:25:40;;;;;;;2.87;2.67;;;;;;;9.83;100.00;96139.97;5073558;28;20568;-77
2023/03/25 10:28:13;;;;;;;3.53;2.93;;;;;;;10.06;100.00;96133.78;5087804;28;20181;-77
2023/03/25 10:30:47;;;;;;;3.17;2.97;;;;;;;10.28;100.00;96130.25;5093584;28;20185;-76
2023/03/25 10:33:35;;;;;;;3.93;3.63;;;;;;;10.34;100.00;96134.50;5093452;28;20186;-76
2023/03/25 10:36:02;;;;;;;7.80;7.37;;;;;;;10.52;100.00;96135.28;5080222;28;20192;-76
2023/03/25 10:38:30;;;;;;;6.93;6.63;;;;;;;10.68;100.00;96132.63;5074857;28;20263;-75
2023/03/25 10:40:58;;;;;;;7.83;7.37;;;;;;;10.69;100.00;96128.97;5092891;28;20267;-77
2023/03/25 10:43:39;;;;;;;59.67;56.67;;;;;;;11.08;98.67;96142.81;5095291;28;20287;-76
2023/03/25 10:46:08;;;;;;;4.77;4.47;;;;;;;10.99;95.67;96144.25;5079471;28;20181;-78
2023/03/25 10:48:34;;;;;;;3.13;3.00;;;;;;;11.09;94.33;96133.13;5090106;28;20225;-77
2023/03/25 10:51:08;;;;;;;4.17;4.07;;;;;;;10.94;91.99;96132.91;5093149;28;20637;-77
2023/03/25 10:53:34;;;;;;;3.37;3.17;;;;;;;11.08;91.37;96124.44;5093543;28;20694;-85
2023/03/25 10:56:02;;;;;;;7.87;7.10;;;;;;;11.42;93.25;96126.91;5081254;28;20185;-77
2023/03/25 10:58:29;;;;;;;14.67;13.87;;;;;;;10.93;88.72;96121.63;5074845;28;20177;-76
2023/03/25 11:00:55;;;;;;;20.07;19.00;;;;;;;10.97;87.85;96122.75;5073101;28;20180;-77
2023/03/25 11:03:32;;;;;;;13.60;12.97;;;;;;;10.77;87.79;96117.25;5075240;28;20228;-77
2023/03/25 11:05:58;;;;;;;4.93;4.63;;;;;;;10.74;88.20;96118.53;5081466;28;20188;-84
2023/03/25 11:08:24;;;;;;;3.70;3.50;;;;;;;10.72;88.39;96120.59;5083379;28;20185;-77
2023/03/25 11:10:55;;;;;;;9.87;9.30;;;;;;;10.91;85.84;96128.97;5092831;28;20192;-76
2023/03/25 11:13:28;;;;;;;14.60;13.87;;;;;;;11.13;83.26;96124.50;5075015;28;20656;-77
2023/03/25 11:15:58;;;;;;;19.47;18.47;;;;;;;10.73;81.11;96119.56;5075296;28;20225;-76
2023/03/25 11:18:34;;;;;;;16.83;16.00;;;;;;;10.93;80.82;96112.97;5080774;28;20183;-76
2023/03/25 11:21:03;;;;;;;13.63;12.53;;;;;;;10.89;80.76;96085.66;5092693;28;20191;-76
2023/03/25 11:23:41;;;;;;;12.33;11.57;;;;;;;10.70;80.32;96109.56;5073775;28;20223;-76
2023/03/25 11:26:35;;;;;;;33.83;31.93;;;;;;;10.67;78.65;96130.22;5061750;28;20308;-77
2023/03/25 11:29:05;;;;;;;10.83;10.13;;;;;;;10.81;80.26;96115.75;5072401;28;20217;-76
2023/03/25 11:31:36;;;;;;;7.23;6.80;;;;;;;10.96;79.02;96125.59;5073584;28;20196;-77
2023/03/25 11:34:10;;;;;;;9.50;9.00;;;;;;;10.91;79.67;96109.81;5054706;28;20673;-76
2023/03/25 11:37:08;;;;;;;7.63;7.23;;;;;;;11.02;79.29;96117.56;5085672;28;20184;-76
2023/03/25 11:39:38;;;;;;;5.20;4.83;;;;;;;11.02;78.09;96104.44;5092625;28;20271;-82
2023/03/25 11:42:31;;;;;;;4.80;4.60;;;;;;;10.83;78.00;96097.94;5083727;28;20225;-76
2023/03/25 11:44:58;;;;;;;7.03;6.73;;;;;;;11.05;77.75;96096.06;5054790;28;20178;-76